sensor_id;sensor_type;location;lat;lon;timestamp;temperature;humidity
57088;DHT22;42965;52.846;6.614;2023-12-29T00:02:23;10.30;99.90
57088;DHT22;42965;52.846;6.614;2023-12-29T00:04:50;10.30;99.90
57088;DHT22;42965;52.846;6.614;2023-12-29T00:07:16;10.50;99.90
57088;DHT22;42965;52.846;6.614;2023-12-29T00:09:42;10.50;99.90
57088;DHT22;42965;52.846;6.614;2023-12-29T00:12:09;10.50;99.90
57088;DHT22;42965;52.846;6.614;2023-12-29T00:14:39;10.40;99.90
57088;DHT22;42965;52.846;6.614;2023-12-29T00:17:05;10.50;99.90
57088;DHT22;42965;52.846;6.614;2023-12-29T00:19:31;10.50;99.90
57088;DHT22;42965;52.846;6.614;2023-12-29T00:21:58;10.50;99.90
57088;DHT22;42965;52.846;6.614;2023-12-29T00:24:26;10.50;99.90
57088;DHT22;42965;52.846;6.614;2023-12-29T00:26:52;10.50;99.90
57088;DHT22;42965;52.846;6.614;2023-12-29T00:29:39;10.50;99.90
57088;DHT22;42965;52.846;6.614;2023-12-29T00:32:05;10.50;99.90
57088;DHT22;42965;52.846;6.614;2023-12-29T00:34:32;10.30;99.90
57088;DHT22;42965;52.846;6.614;2023-12-29T00:36:58;9.90;99.90
57088;DHT22;42965;52.846;6.614;2023-12-29T00:39:24;9.70;99.90
57088;DHT22;42965;52.846;6.614;2023-12-29T00:41:55;9.50;99.90
57088;DHT22;42965;52.846;6.614;2023-12-29T00:44:24;9.40;99.90
57088;DHT22;42965;52.846;6.614;2023-12-29T00:46:51;9.30;99.90
57088;DHT22;42965;52.846;6.614;2023-12-29T00:49:17;9.20;99.90
57088;DHT22;42965;52.846;6.614;2023-12-29T00:51:43;9.30;99.90
57088;DHT22;42965;52.846;6.614;2023-12-29T00:54:10;9.30;99.90
57088;DHT22;42965;52.846;6.614;2023-12-29T00:56:36;9.30;99.90
57088;DHT22;42965;52.846;6.614;2023-12-29T00:59:22;9.30;99.90
57088;DHT22;42965;52.846;6.614;2023-12-29T01:01:49;9.20;99.90
57088;DHT22;42965;52.846;6.614;2023-12-29T01:04:15;9.30;99.90
57088;DHT22;42965;52.846;6.614;2023-12-29T01:06:42;9.20;99.90
57088;DHT22;42965;52.846;6.614;2023-12-29T01:09:08;9.20;99.90
57088;DHT22;42965;52.846;6.614;2023-12-29T01:11:37;9.20;99.90
57088;DHT22;42965;52.846;6.614;2023-12-29T01:14:03;9.20;99.90
57088;DHT22;42965;52.846;6.614;2023-12-29T01:16:29;9.30;99.90
57088;DHT22;42965;52.846;6.614;2023-12-29T01:18:56;9.20;99.90
57088;DHT22;42965;52.846;6.614;2023-12-29T01:21:42;9.20;99.90
57088;DHT22;42965;52.846;6.614;2023-12-29T01:24:08;9.20;99.90
57088;DHT22;42965;52.846;6.614;2023-12-29T01:26:38;9.30;99.90
57088;DHT22;42965;52.846;6.614;2023-12-29T01:29:05;9.30;99.90
57088;DHT22;42965;52.846;6.614;2023-12-29T01:31:32;9.20;99.90
57088;DHT22;42965;52.846;6.614;2023-12-29T01:33:58;9.30;99.90
57088;DHT22;42965;52.846;6.614;2023-12-29T01:36:25;9.30;99.90
57088;DHT22;42965;52.846;6.614;2023-12-29T01:38:52;9.20;99.90
57088;DHT22;42965;52.846;6.614;2023-12-29T01:41:21;9.20;99.90
57088;DHT22;42965;52.846;6.614;2023-12-29T01:46:28;9.30;99.90
57088;DHT22;42965;52.846;6.614;2023-12-29T01:48:55;9.30;99.90
57088;DHT22;42965;52.846;6.614;2023-12-29T01:51:25;9.40;99.90
57088;DHT22;42965;52.846;6.614;2023-12-29T01:53:53;9.40;99.90
57088;DHT22;42965;52.846;6.614;2023-12-29T01:56:20;9.40;99.90
57088;DHT22;42965;52.846;6.614;2023-12-29T01:58:49;9.40;99.90
57088;DHT22;42965;52.846;6.614;2023-12-29T02:01:18;9.30;99.90
57088;DHT22;42965;52.846;6.614;2023-12-29T02:03:45;9.30;99.90
57088;DHT22;42965;52.846;6.614;2023-12-29T02:06:13;9.40;99.90
57088;DHT22;42965;52.846;6.614;2023-12-29T02:08:40;9.40;99.90
57088;DHT22;42965;52.846;6.614;2023-12-29T02:11:07;9.40;99.90
57088;DHT22;42965;52.846;6.614;2023-12-29T02:13:34;9.40;99.90
57088;DHT22;42965;52.846;6.614;2023-12-29T02:16:26;9.40;99.90
57088;DHT22;42965;52.846;6.614;2023-12-29T02:18:55;9.50;99.90
57088;DHT22;42965;52.846;6.614;2023-12-29T02:21:25;9.50;99.90
57088;DHT22;42965;52.846;6.614;2023-12-29T02:23:51;9.50;99.90
57088;DHT22;42965;52.846;6.614;2023-12-29T02:26:20;9.50;99.90
57088;DHT22;42965;52.846;6.614;2023-12-29T02:28:53;9.50;99.90
57088;DHT22;42965;52.846;6.614;2023-12-29T02:31:24;9.50;99.90
57088;DHT22;42965;52.846;6.614;2023-12-29T02:33:54;9.50;99.90
57088;DHT22;42965;52.846;6.614;2023-12-29T02:36:41;9.60;99.90
57088;DHT22;42965;52.846;6.614;2023-12-29T02:39:10;9.60;99.90
57088;DHT22;42965;52.846;6.614;2023-12-29T02:41:38;9.60;99.90
57088;DHT22;42965;52.846;6.614;2023-12-29T02:44:06;9.50;99.90
57088;DHT22;42965;52.846;6.614;2023-12-29T02:46:32;9.50;99.90
57088;DHT22;42965;52.846;6.614;2023-12-29T02:48:59;9.60;99.90
57088;DHT22;42965;52.846;6.614;2023-12-29T02:51:25;9.60;99.90
57088;DHT22;42965;52.846;6.614;2023-12-29T02:53:52;9.50;99.90
57088;DHT22;42965;52.846;6.614;2023-12-29T02:56:18;9.50;99.90
57088;DHT22;42965;52.846;6.614;2023-12-29T02:58:44;9.50;99.90
57088;DHT22;42965;52.846;6.614;2023-12-29T03:01:12;9.60;99.90
57088;DHT22;42965;52.846;6.614;2023-12-29T03:03:38;9.50;99.90
57088;DHT22;42965;52.846;6.614;2023-12-29T03:06:06;9.50;99.90
57088;DHT22;42965;52.846;6.614;2023-12-29T03:08:33;9.50;99.90
57088;DHT22;42965;52.846;6.614;2023-12-29T03:10:59;9.50;99.90
57088;DHT22;42965;52.846;6.614;2023-12-29T03:13:27;9.50;99.90
57088;DHT22;42965;52.846;6.614;2023-12-29T03:15:53;9.40;99.90
57088;DHT22;42965;52.846;6.614;2023-12-29T03:18:21;9.40;99.90
57088;DHT22;42965;52.846;6.614;2023-12-29T03:20:47;9.50;99.90
57088;DHT22;42965;52.846;6.614;2023-12-29T03:23:13;9.50;99.90
57088;DHT22;42965;52.846;6.614;2023-12-29T03:25:41;9.50;99.90
57088;DHT22;42965;52.846;6.614;2023-12-29T03:28:07;9.50;99.90
57088;DHT22;42965;52.846;6.614;2023-12-29T03:30:34;9.50;99.90
57088;DHT22;42965;52.846;6.614;2023-12-29T03:33:00;9.50;99.90
57088;DHT22;42965;52.846;6.614;2023-12-29T03:35:26;9.40;99.90
57088;DHT22;42965;52.846;6.614;2023-12-29T03:37:52;9.40;99.90
57088;DHT22;42965;52.846;6.614;2023-12-29T03:40:18;9.50;99.90
57088;DHT22;42965;52.846;6.614;2023-12-29T03:42:45;9.50;99.90
57088;DHT22;42965;52.846;6.614;2023-12-29T03:45:11;9.50;99.90
57088;DHT22;42965;52.846;6.614;2023-12-29T03:47:38;9.50;99.90
57088;DHT22;42965;52.846;6.614;2023-12-29T03:50:04;9.50;99.90
57088;DHT22;42965;52.846;6.614;2023-12-29T03:52:51;9.50;99.90
57088;DHT22;42965;52.846;6.614;2023-12-29T03:55:17;9.40;99.90
57088;DHT22;42965;52.846;6.614;2023-12-29T03:57:43;9.50;99.90
57088;DHT22;42965;52.846;6.614;2023-12-29T04:00:14;9.40;99.90
57088;DHT22;42965;52.846;6.614;2023-12-29T04:02:40;9.40;99.90
57088;DHT22;42965;52.846;6.614;2023-12-29T04:05:09;9.40;99.90
57088;DHT22;42965;52.846;6.614;2023-12-29T04:07:39;9.60;99.90
57088;DHT22;42965;52.846;6.614;2023-12-29T04:10:07;9.50;99.90
57088;DHT22;42965;52.846;6.614;2023-12-29T04:12:34;9.50;99.90
57088;DHT22;42965;52.846;6.614;2023-12-29T04:15:03;9.50;99.90
57088;DHT22;42965;52.846;6.614;2023-12-29T04:17:30;9.50;99.90
57088;DHT22;42965;52.846;6.614;2023-12-29T04:19:56;9.50;99.90
57088;DHT22;42965;52.846;6.614;2023-12-29T04:22:22;9.40;99.90
57088;DHT22;42965;52.846;6.614;2023-12-29T04:24:49;9.40;99.90
57088;DHT22;42965;52.846;6.614;2023-12-29T04:27:15;9.40;99.90
57088;DHT22;42965;52.846;6.614;2023-12-29T04:29:42;9.50;99.90
57088;DHT22;42965;52.846;6.614;2023-12-29T04:32:09;9.50;99.90
57088;DHT22;42965;52.846;6.614;2023-12-29T04:34:36;9.50;99.90
57088;DHT22;42965;52.846;6.614;2023-12-29T04:37:04;9.60;99.90
57088;DHT22;42965;52.846;6.614;2023-12-29T04:39:31;9.70;99.90
57088;DHT22;42965;52.846;6.614;2023-12-29T04:41:57;9.70;99.90
57088;DHT22;42965;52.846;6.614;2023-12-29T04:44:24;9.70;99.90
57088;DHT22;42965;52.846;6.614;2023-12-29T04:46:50;9.70;99.90
57088;DHT22;42965;52.846;6.614;2023-12-29T04:49:16;9.70;99.90
57088;DHT22;42965;52.846;6.614;2023-12-29T04:51:42;9.70;99.90
57088;DHT22;42965;52.846;6.614;2023-12-29T04:54:09;9.70;99.90
57088;DHT22;42965;52.846;6.614;2023-12-29T04:56:35;9.70;99.90
57088;DHT22;42965;52.846;6.614;2023-12-29T04:59:01;9.70;99.90
57088;DHT22;42965;52.846;6.614;2023-12-29T05:01:27;9.80;99.90
57088;DHT22;42965;52.846;6.614;2023-12-29T05:03:54;9.80;99.90
57088;DHT22;42965;52.846;6.614;2023-12-29T05:06:20;9.80;99.90
57088;DHT22;42965;52.846;6.614;2023-12-29T05:08:47;9.80;99.90
57088;DHT22;42965;52.846;6.614;2023-12-29T05:11:13;9.80;99.90
57088;DHT22;42965;52.846;6.614;2023-12-29T05:13:40;9.70;99.90
57088;DHT22;42965;52.846;6.614;2023-12-29T05:16:06;9.70;99.90
57088;DHT22;42965;52.846;6.614;2023-12-29T05:18:32;9.80;99.90
57088;DHT22;42965;52.846;6.614;2023-12-29T05:20:59;9.70;99.90
57088;DHT22;42965;52.846;6.614;2023-12-29T05:23:25;9.80;99.90
57088;DHT22;42965;52.846;6.614;2023-12-29T05:26:12;9.80;99.90
57088;DHT22;42965;52.846;6.614;2023-12-29T05:28:40;9.80;99.90
57088;DHT22;42965;52.846;6.614;2023-12-29T05:31:06;9.80;99.90
57088;DHT22;42965;52.846;6.614;2023-12-29T05:33:33;9.80;99.90
57088;DHT22;42965;52.846;6.614;2023-12-29T05:36:05;9.80;99.90
57088;DHT22;42965;52.846;6.614;2023-12-29T05:38:33;9.80;99.90
57088;DHT22;42965;52.846;6.614;2023-12-29T05:40:59;9.80;99.90
57088;DHT22;42965;52.846;6.614;2023-12-29T05:43:28;9.80;99.90
57088;DHT22;42965;52.846;6.614;2023-12-29T05:45:54;9.80;99.90
57088;DHT22;42965;52.846;6.614;2023-12-29T05:48:21;9.80;99.90
57088;DHT22;42965;52.846;6.614;2023-12-29T05:50:47;9.80;99.90
57088;DHT22;42965;52.846;6.614;2023-12-29T05:53:13;9.80;99.90
57088;DHT22;42965;52.846;6.614;2023-12-29T05:55:41;9.80;99.90
57088;DHT22;42965;52.846;6.614;2023-12-29T05:58:07;9.80;99.90
57088;DHT22;42965;52.846;6.614;2023-12-29T06:00:39;9.80;99.90
57088;DHT22;42965;52.846;6.614;2023-12-29T06:03:26;9.70;99.90
57088;DHT22;42965;52.846;6.614;2023-12-29T06:05:52;9.70;99.90
57088;DHT22;42965;52.846;6.614;2023-12-29T06:08:19;9.70;99.90
57088;DHT22;42965;52.846;6.614;2023-12-29T06:10:46;9.70;99.90
57088;DHT22;42965;52.846;6.614;2023-12-29T06:13:12;9.70;99.90
57088;DHT22;42965;52.846;6.614;2023-12-29T06:15:38;9.70;99.90
57088;DHT22;42965;52.846;6.614;2023-12-29T06:18:08;9.60;99.90
57088;DHT22;42965;52.846;6.614;2023-12-29T06:20:34;9.70;99.90
57088;DHT22;42965;52.846;6.614;2023-12-29T06:23:00;9.70;99.90
57088;DHT22;42965;52.846;6.614;2023-12-29T06:25:27;9.80;99.90
57088;DHT22;42965;52.846;6.614;2023-12-29T06:28:13;9.80;99.90
57088;DHT22;42965;52.846;6.614;2023-12-29T06:30:40;9.90;99.90
57088;DHT22;42965;52.846;6.614;2023-12-29T06:33:06;9.80;99.90
57088;DHT22;42965;52.846;6.614;2023-12-29T06:35:33;9.80;99.90
57088;DHT22;42965;52.846;6.614;2023-12-29T06:38:00;9.80;99.90
57088;DHT22;42965;52.846;6.614;2023-12-29T06:40:26;9.80;99.90
57088;DHT22;42965;52.846;6.614;2023-12-29T06:42:53;9.80;99.90
57088;DHT22;42965;52.846;6.614;2023-12-29T06:45:19;9.80;99.90
57088;DHT22;42965;52.846;6.614;2023-12-29T06:47:46;9.80;99.90
57088;DHT22;42965;52.846;6.614;2023-12-29T06:50:12;9.80;99.90
57088;DHT22;42965;52.846;6.614;2023-12-29T06:52:39;9.80;99.90
57088;DHT22;42965;52.846;6.614;2023-12-29T06:55:06;9.80;99.90
57088;DHT22;42965;52.846;6.614;2023-12-29T06:57:33;9.80;99.90
57088;DHT22;42965;52.846;6.614;2023-12-29T07:00:00;9.80;99.90
57088;DHT22;42965;52.846;6.614;2023-12-29T07:02:26;9.80;99.90
57088;DHT22;42965;52.846;6.614;2023-12-29T07:04:52;9.90;99.90
57088;DHT22;42965;52.846;6.614;2023-12-29T07:07:18;9.80;99.90
57088;DHT22;42965;52.846;6.614;2023-12-29T07:09:45;9.60;99.90
57088;DHT22;42965;52.846;6.614;2023-12-29T07:12:12;9.50;99.90
57088;DHT22;42965;52.846;6.614;2023-12-29T07:14:41;9.40;99.90
57088;DHT22;42965;52.846;6.614;2023-12-29T07:17:07;9.40;99.90
57088;DHT22;42965;52.846;6.614;2023-12-29T07:19:37;9.40;99.90
57088;DHT22;42965;52.846;6.614;2023-12-29T07:22:04;9.40;99.90
57088;DHT22;42965;52.846;6.614;2023-12-29T07:24:35;9.40;99.90
57088;DHT22;42965;52.846;6.614;2023-12-29T07:27:02;9.40;99.90
57088;DHT22;42965;52.846;6.614;2023-12-29T07:29:28;9.30;99.90
57088;DHT22;42965;52.846;6.614;2023-12-29T07:31:54;9.20;99.90
57088;DHT22;42965;52.846;6.614;2023-12-29T07:34:21;9.20;99.90
57088;DHT22;42965;52.846;6.614;2023-12-29T07:36:47;9.20;99.90
57088;DHT22;42965;52.846;6.614;2023-12-29T07:39:14;9.20;99.90
57088;DHT22;42965;52.846;6.614;2023-12-29T07:41:41;9.10;99.90
57088;DHT22;42965;52.846;6.614;2023-12-29T07:44:13;9.10;99.90
57088;DHT22;42965;52.846;6.614;2023-12-29T07:46:40;9.10;99.90
57088;DHT22;42965;52.846;6.614;2023-12-29T07:49:07;9.10;99.90
57088;DHT22;42965;52.846;6.614;2023-12-29T07:51:33;9.10;99.90
57088;DHT22;42965;52.846;6.614;2023-12-29T07:54:19;9.10;99.90
57088;DHT22;42965;52.846;6.614;2023-12-29T07:56:46;9.00;99.90
57088;DHT22;42965;52.846;6.614;2023-12-29T07:59:12;9.10;99.90
57088;DHT22;42965;52.846;6.614;2023-12-29T08:01:38;9.00;99.90
57088;DHT22;42965;52.846;6.614;2023-12-29T08:04:05;9.10;99.90
57088;DHT22;42965;52.846;6.614;2023-12-29T08:06:32;9.10;99.90
57088;DHT22;42965;52.846;6.614;2023-12-29T08:08:59;9.10;99.90
57088;DHT22;42965;52.846;6.614;2023-12-29T08:11:25;9.10;99.90
57088;DHT22;42965;52.846;6.614;2023-12-29T08:13:53;9.10;99.90
57088;DHT22;42965;52.846;6.614;2023-12-29T08:16:21;9.20;99.90
57088;DHT22;42965;52.846;6.614;2023-12-29T08:18:49;9.20;99.90
57088;DHT22;42965;52.846;6.614;2023-12-29T08:21:17;9.20;99.90
57088;DHT22;42965;52.846;6.614;2023-12-29T08:23:48;9.20;99.90
57088;DHT22;42965;52.846;6.614;2023-12-29T08:26:14;9.20;99.90
57088;DHT22;42965;52.846;6.614;2023-12-29T08:28:40;9.20;99.90
57088;DHT22;42965;52.846;6.614;2023-12-29T08:31:08;9.20;99.90
57088;DHT22;42965;52.846;6.614;2023-12-29T08:33:34;9.20;99.90
57088;DHT22;42965;52.846;6.614;2023-12-29T08:36:02;9.20;99.90
57088;DHT22;42965;52.846;6.614;2023-12-29T08:38:30;9.30;99.90
57088;DHT22;42965;52.846;6.614;2023-12-29T08:40:57;9.20;99.90
57088;DHT22;42965;52.846;6.614;2023-12-29T08:43:24;9.30;99.90
57088;DHT22;42965;52.846;6.614;2023-12-29T08:45:50;9.30;99.90
57088;DHT22;42965;52.846;6.614;2023-12-29T08:48:36;9.30;99.90
57088;DHT22;42965;52.846;6.614;2023-12-29T08:51:03;9.20;99.90
57088;DHT22;42965;52.846;6.614;2023-12-29T08:53:30;9.30;99.90
57088;DHT22;42965;52.846;6.614;2023-12-29T08:55:59;9.20;99.90
57088;DHT22;42965;52.846;6.614;2023-12-29T08:58:46;9.00;99.90
57088;DHT22;42965;52.846;6.614;2023-12-29T09:01:12;8.90;99.90
57088;DHT22;42965;52.846;6.614;2023-12-29T09:03:59;8.90;99.90
57088;DHT22;42965;52.846;6.614;2023-12-29T09:06:26;9.00;99.90
57088;DHT22;42965;52.846;6.614;2023-12-29T09:08:52;9.00;99.90
57088;DHT22;42965;52.846;6.614;2023-12-29T09:11:18;9.00;99.90
57088;DHT22;42965;52.846;6.614;2023-12-29T09:13:48;9.20;99.90
57088;DHT22;42965;52.846;6.614;2023-12-29T09:16:15;9.10;99.90
57088;DHT22;42965;52.846;6.614;2023-12-29T09:18:42;9.10;99.90
57088;DHT22;42965;52.846;6.614;2023-12-29T09:21:08;9.20;99.90
57088;DHT22;42965;52.846;6.614;2023-12-29T09:23:34;9.30;99.90
57088;DHT22;42965;52.846;6.614;2023-12-29T09:26:03;9.20;99.90
57088;DHT22;42965;52.846;6.614;2023-12-29T09:28:32;9.10;99.90
57088;DHT22;42965;52.846;6.614;2023-12-29T09:30:58;9.20;99.90
57088;DHT22;42965;52.846;6.614;2023-12-29T09:33:27;9.20;99.90
57088;DHT22;42965;52.846;6.614;2023-12-29T09:35:54;9.20;99.90
57088;DHT22;42965;52.846;6.614;2023-12-29T09:38:20;9.10;99.90
57088;DHT22;42965;52.846;6.614;2023-12-29T09:40:47;9.20;99.90
57088;DHT22;42965;52.846;6.614;2023-12-29T09:43:15;9.20;99.90
57088;DHT22;42965;52.846;6.614;2023-12-29T09:45:42;9.10;99.90
57088;DHT22;42965;52.846;6.614;2023-12-29T09:48:12;9.20;99.90
57088;DHT22;42965;52.846;6.614;2023-12-29T09:50:39;9.20;99.90
57088;DHT22;42965;52.846;6.614;2023-12-29T09:53:06;9.20;99.90
57088;DHT22;42965;52.846;6.614;2023-12-29T09:55:35;9.30;99.90
57088;DHT22;42965;52.846;6.614;2023-12-29T09:58:01;9.20;99.90
57088;DHT22;42965;52.846;6.614;2023-12-29T10:00:29;9.30;99.90
57088;DHT22;42965;52.846;6.614;2023-12-29T10:02:55;9.20;99.90
57088;DHT22;42965;52.846;6.614;2023-12-29T10:05:23;9.20;99.90
57088;DHT22;42965;52.846;6.614;2023-12-29T10:07:50;9.20;99.90
57088;DHT22;42965;52.846;6.614;2023-12-29T10:10:20;9.30;99.90
57088;DHT22;42965;52.846;6.614;2023-12-29T10:13:10;9.30;99.90
57088;DHT22;42965;52.846;6.614;2023-12-29T10:15:46;9.30;99.90
57088;DHT22;42965;52.846;6.614;2023-12-29T10:18:28;9.20;99.90
57088;DHT22;42965;52.846;6.614;2023-12-29T10:21:02;9.20;99.90
57088;DHT22;42965;52.846;6.614;2023-12-29T10:23:42;9.20;99.90
57088;DHT22;42965;52.846;6.614;2023-12-29T10:26:12;9.20;99.90
57088;DHT22;42965;52.846;6.614;2023-12-29T10:28:39;9.10;99.90
57088;DHT22;42965;52.846;6.614;2023-12-29T10:31:05;9.10;99.90
57088;DHT22;42965;52.846;6.614;2023-12-29T10:33:31;9.10;99.90
57088;DHT22;42965;52.846;6.614;2023-12-29T10:35:59;9.00;99.90
57088;DHT22;42965;52.846;6.614;2023-12-29T10:38:29;9.10;99.90
57088;DHT22;42965;52.846;6.614;2023-12-29T10:41:16;9.00;99.90
57088;DHT22;42965;52.846;6.614;2023-12-29T10:43:45;8.90;99.90
57088;DHT22;42965;52.846;6.614;2023-12-29T10:46:18;8.90;99.90
57088;DHT22;42965;52.846;6.614;2023-12-29T10:48:45;8.90;99.90
57088;DHT22;42965;52.846;6.614;2023-12-29T10:51:14;8.90;99.90
57088;DHT22;42965;52.846;6.614;2023-12-29T10:53:40;8.80;99.90
57088;DHT22;42965;52.846;6.614;2023-12-29T10:56:17;8.80;99.90
57088;DHT22;42965;52.846;6.614;2023-12-29T10:58:57;8.80;99.90
57088;DHT22;42965;52.846;6.614;2023-12-29T11:01:27;8.80;99.90
57088;DHT22;42965;52.846;6.614;2023-12-29T11:04:00;8.80;99.90
57088;DHT22;42965;52.846;6.614;2023-12-29T11:06:27;8.90;99.90
57088;DHT22;42965;52.846;6.614;2023-12-29T11:08:55;8.90;99.90
57088;DHT22;42965;52.846;6.614;2023-12-29T11:11:23;9.00;99.90
57088;DHT22;42965;52.846;6.614;2023-12-29T11:13:50;9.00;99.90
57088;DHT22;42965;52.846;6.614;2023-12-29T11:16:16;9.10;99.90
57088;DHT22;42965;52.846;6.614;2023-12-29T11:18:44;9.10;99.90
57088;DHT22;42965;52.846;6.614;2023-12-29T11:21:14;9.10;99.90
57088;DHT22;42965;52.846;6.614;2023-12-29T11:23:44;9.10;99.90
57088;DHT22;42965;52.846;6.614;2023-12-29T11:26:10;9.20;99.90
57088;DHT22;42965;52.846;6.614;2023-12-29T11:28:38;9.20;99.90
57088;DHT22;42965;52.846;6.614;2023-12-29T11:31:05;9.20;99.90
57088;DHT22;42965;52.846;6.614;2023-12-29T11:33:38;9.20;99.90
57088;DHT22;42965;52.846;6.614;2023-12-29T11:42:21;9.30;99.90
57088;DHT22;42965;52.846;6.614;2023-12-29T11:44:48;9.40;99.90
57088;DHT22;42965;52.846;6.614;2023-12-29T11:47:36;9.30;99.90
57088;DHT22;42965;52.846;6.614;2023-12-29T11:50:03;9.40;99.90
57088;DHT22;42965;52.846;6.614;2023-12-29T11:52:38;9.40;99.90
57088;DHT22;42965;52.846;6.614;2023-12-29T11:55:14;9.30;99.90
57088;DHT22;42965;52.846;6.614;2023-12-29T11:57:41;9.20;99.90
57088;DHT22;42965;52.846;6.614;2023-12-29T12:00:08;9.20;99.90
57088;DHT22;42965;52.846;6.614;2023-12-29T12:02:38;9.10;99.90
57088;DHT22;42965;52.846;6.614;2023-12-29T12:05:05;9.10;99.90
57088;DHT22;42965;52.846;6.614;2023-12-29T12:12:49;9.10;99.90
57088;DHT22;42965;52.846;6.614;2023-12-29T12:18:00;9.20;99.90
57088;DHT22;42965;52.846;6.614;2023-12-29T12:20:27;9.20;99.90
57088;DHT22;42965;52.846;6.614;2023-12-29T12:23:03;9.30;99.90
57088;DHT22;42965;52.846;6.614;2023-12-29T12:25:32;9.30;99.90
57088;DHT22;42965;52.846;6.614;2023-12-29T12:28:23;9.30;99.90
57088;DHT22;42965;52.846;6.614;2023-12-29T12:30:49;9.20;99.90
57088;DHT22;42965;52.846;6.614;2023-12-29T12:33:15;9.20;99.90
57088;DHT22;42965;52.846;6.614;2023-12-29T12:35:42;9.10;99.90
57088;DHT22;42965;52.846;6.614;2023-12-29T12:38:17;9.10;99.90
57088;DHT22;42965;52.846;6.614;2023-12-29T12:40:50;9.00;99.90
57088;DHT22;42965;52.846;6.614;2023-12-29T12:43:17;9.00;99.90
57088;DHT22;42965;52.846;6.614;2023-12-29T12:45:54;9.00;99.90
57088;DHT22;42965;52.846;6.614;2023-12-29T12:48:41;8.90;99.90
57088;DHT22;42965;52.846;6.614;2023-12-29T12:51:10;8.90;99.90
57088;DHT22;42965;52.846;6.614;2023-12-29T12:53:42;8.90;99.90
57088;DHT22;42965;52.846;6.614;2023-12-29T12:56:10;9.00;99.90
57088;DHT22;42965;52.846;6.614;2023-12-29T12:58:37;8.90;99.90
57088;DHT22;42965;52.846;6.614;2023-12-29T13:01:04;8.90;99.90
57088;DHT22;42965;52.846;6.614;2023-12-29T13:03:31;9.00;99.90
57088;DHT22;42965;52.846;6.614;2023-12-29T13:05:59;9.00;99.90
57088;DHT22;42965;52.846;6.614;2023-12-29T13:08:26;9.10;99.90
57088;DHT22;42965;52.846;6.614;2023-12-29T13:10:53;9.10;99.90
57088;DHT22;42965;52.846;6.614;2023-12-29T13:13:19;9.10;99.90
57088;DHT22;42965;52.846;6.614;2023-12-29T13:15:48;9.10;99.90
57088;DHT22;42965;52.846;6.614;2023-12-29T13:18:15;9.10;99.90
57088;DHT22;42965;52.846;6.614;2023-12-29T13:20:48;9.00;99.90
57088;DHT22;42965;52.846;6.614;2023-12-29T13:23:16;9.00;99.90
57088;DHT22;42965;52.846;6.614;2023-12-29T13:25:47;8.90;99.90
57088;DHT22;42965;52.846;6.614;2023-12-29T13:28:15;8.90;99.90
57088;DHT22;42965;52.846;6.614;2023-12-29T13:30:41;8.90;99.90
57088;DHT22;42965;52.846;6.614;2023-12-29T13:33:12;8.90;99.90
57088;DHT22;42965;52.846;6.614;2023-12-29T13:35:48;8.90;99.90
57088;DHT22;42965;52.846;6.614;2023-12-29T13:38:24;8.90;99.90
57088;DHT22;42965;52.846;6.614;2023-12-29T13:41:02;8.90;99.90
57088;DHT22;42965;52.846;6.614;2023-12-29T13:43:35;9.10;99.90
57088;DHT22;42965;52.846;6.614;2023-12-29T13:46:03;9.30;99.90
57088;DHT22;42965;52.846;6.614;2023-12-29T13:48:32;9.60;99.90
57088;DHT22;42965;52.846;6.614;2023-12-29T13:50:58;9.60;99.90
57088;DHT22;42965;52.846;6.614;2023-12-29T13:53:26;9.60;99.90
57088;DHT22;42965;52.846;6.614;2023-12-29T13:55:52;9.70;99.90
57088;DHT22;42965;52.846;6.614;2023-12-29T13:58:38;9.60;99.90
57088;DHT22;42965;52.846;6.614;2023-12-29T14:01:08;9.60;99.90
57088;DHT22;42965;52.846;6.614;2023-12-29T14:03:47;9.60;99.90
57088;DHT22;42965;52.846;6.614;2023-12-29T14:06:32;9.60;99.90
57088;DHT22;42965;52.846;6.614;2023-12-29T14:09:03;9.60;99.90
57088;DHT22;42965;52.846;6.614;2023-12-29T14:11:30;9.60;99.90
57088;DHT22;42965;52.846;6.614;2023-12-29T14:13:57;9.50;99.90
57088;DHT22;42965;52.846;6.614;2023-12-29T14:16:23;9.50;99.90
57088;DHT22;42965;52.846;6.614;2023-12-29T14:18:53;9.60;99.90
57088;DHT22;42965;52.846;6.614;2023-12-29T14:21:29;9.50;99.90
57088;DHT22;42965;52.846;6.614;2023-12-29T14:24:12;9.50;99.90
57088;DHT22;42965;52.846;6.614;2023-12-29T14:26:42;9.50;99.90
57088;DHT22;42965;52.846;6.614;2023-12-29T14:29:15;9.50;99.90
57088;DHT22;42965;52.846;6.614;2023-12-29T14:32:01;9.50;99.90
57088;DHT22;42965;52.846;6.614;2023-12-29T14:34:28;9.50;99.90
57088;DHT22;42965;52.846;6.614;2023-12-29T14:36:54;9.50;99.90
57088;DHT22;42965;52.846;6.614;2023-12-29T14:39:20;9.50;99.90
57088;DHT22;42965;52.846;6.614;2023-12-29T14:41:46;9.40;99.90
57088;DHT22;42965;52.846;6.614;2023-12-29T14:44:14;9.40;99.90
57088;DHT22;42965;52.846;6.614;2023-12-29T14:46:40;9.40;99.90
57088;DHT22;42965;52.846;6.614;2023-12-29T14:49:10;9.40;99.90
57088;DHT22;42965;52.846;6.614;2023-12-29T14:51:37;9.30;99.90
57088;DHT22;42965;52.846;6.614;2023-12-29T14:54:03;9.40;99.90
57088;DHT22;42965;52.846;6.614;2023-12-29T14:56:30;9.30;99.90
57088;DHT22;42965;52.846;6.614;2023-12-29T14:58:56;9.40;99.90
57088;DHT22;42965;52.846;6.614;2023-12-29T15:01:22;9.30;99.90
57088;DHT22;42965;52.846;6.614;2023-12-29T15:04:09;9.30;99.90
57088;DHT22;42965;52.846;6.614;2023-12-29T15:06:38;9.30;99.90
57088;DHT22;42965;52.846;6.614;2023-12-29T15:09:04;9.30;99.90
57088;DHT22;42965;52.846;6.614;2023-12-29T15:11:32;9.30;99.90
57088;DHT22;42965;52.846;6.614;2023-12-29T15:13:58;9.40;99.90
57088;DHT22;42965;52.846;6.614;2023-12-29T15:16:24;9.40;99.90
57088;DHT22;42965;52.846;6.614;2023-12-29T15:19:10;9.40;99.90
57088;DHT22;42965;52.846;6.614;2023-12-29T15:21:44;9.40;99.90
57088;DHT22;42965;52.846;6.614;2023-12-29T15:24:10;9.30;99.90
57088;DHT22;42965;52.846;6.614;2023-12-29T15:26:44;9.30;99.90
57088;DHT22;42965;52.846;6.614;2023-12-29T15:29:10;9.30;99.90
57088;DHT22;42965;52.846;6.614;2023-12-29T15:31:42;9.20;99.90
57088;DHT22;42965;52.846;6.614;2023-12-29T15:34:10;9.20;99.90
57088;DHT22;42965;52.846;6.614;2023-12-29T15:36:36;9.10;99.90
57088;DHT22;42965;52.846;6.614;2023-12-29T15:39:02;9.20;99.90
57088;DHT22;42965;52.846;6.614;2023-12-29T15:41:50;9.10;99.90
57088;DHT22;42965;52.846;6.614;2023-12-29T15:44:16;9.10;99.90
57088;DHT22;42965;52.846;6.614;2023-12-29T15:46:42;9.10;99.90
57088;DHT22;42965;52.846;6.614;2023-12-29T15:49:08;9.10;99.90
57088;DHT22;42965;52.846;6.614;2023-12-29T15:51:35;9.10;99.90
57088;DHT22;42965;52.846;6.614;2023-12-29T15:54:01;9.10;99.90
57088;DHT22;42965;52.846;6.614;2023-12-29T15:56:27;9.10;99.90
57088;DHT22;42965;52.846;6.614;2023-12-29T15:58:55;9.10;99.90
57088;DHT22;42965;52.846;6.614;2023-12-29T16:01:25;9.10;99.90
57088;DHT22;42965;52.846;6.614;2023-12-29T16:03:53;9.10;99.90
57088;DHT22;42965;52.846;6.614;2023-12-29T16:06:25;9.10;99.90
57088;DHT22;42965;52.846;6.614;2023-12-29T16:08:52;9.10;99.90
57088;DHT22;42965;52.846;6.614;2023-12-29T16:11:26;9.10;99.90
57088;DHT22;42965;52.846;6.614;2023-12-29T16:13:53;9.00;99.90